Time;durP1;ratioP1;P1;durP2;ratioP2;P2;SDS_P1;SDS_P2;PMS_P1;PMS_P2;Temp;Humidity;BMP_temperature;BMP_pressure;BME280_temperature;BME280_humidity;BME280_pressure;Samples;Min_cycle;Max_cycle;Signal;HPM_P1;HPM_P2
2023/10/27 00:02:02;;;;;;;2.70;1.40;;;;;;;11.66;77.01;94574.78;4849043;29;20063;-79
2023/10/27 00:15:10;;;;;;;7.95;3.40;;;;;;;11.56;77.56;94582.44;4828693;29;20042;-81
2023/10/27 00:24:22;;;;;;;5.60;2.10;;;;;;;11.56;79.50;94582.44;4828594;29;20054;-81
2023/10/27 00:27:29;;;;;;;2.85;1.73;;;;;;;11.52;77.06;94579.53;4828798;29;20047;-82
2023/10/27 00:41:57;;;;;;;3.20;1.42;;;;;;;11.37;76.82;94581.91;4842730;29;20045;-82
2023/10/27 02:24:38;;;;;;;3.42;1.08;;;;;;;10.81;79.60;94560.03;4844873;29;20111;-82
2023/10/27 02:54:15;;;;;;;1.55;0.50;;;;;;;10.90;80.18;94527.34;4844675;29;20065;-82
2023/10/27 03:01:35;;;;;;;1.38;0.98;;;;;;;10.76;80.20;94541.66;4826468;29;20055;-81
2023/10/27 03:08:35;;;;;;;2.17;1.00;;;;;;;10.71;81.26;94524.94;4839666;24;20449;-74
2023/10/27 03:11:03;;;;;;;3.55;1.02;;;;;;;10.72;81.31;94520.50;4830432;29;20525;-74
2023/10/27 03:13:30;;;;;;;4.30;0.90;;;;;;;10.74;81.88;94515.06;4825467;29;20137;-76
2023/10/27 03:15:58;;;;;;;3.53;1.10;;;;;;;10.75;82.04;94524.44;4829271;29;20435;-77
2023/10/27 03:18:28;;;;;;;2.35;0.90;;;;;;;10.78;83.53;94522.19;4838359;29;20073;-76
2023/10/27 03:20:56;;;;;;;2.10;1.02;;;;;;;10.83;84.75;94534.53;4843594;29;20054;-77
2023/10/27 03:23:24;;;;;;;3.25;1.70;;;;;;;10.87;85.30;94538.25;4843588;29;20089;-76
2023/10/27 03:25:52;;;;;;;5.95;1.33;;;;;;;10.87;85.26;94528.59;4842187;29;20049;-76
2023/10/27 03:28:20;;;;;;;2.85;1.00;;;;;;;10.87;85.55;94531.19;4828962;29;20046;-76
2023/10/27 03:30:49;;;;;;;1.35;0.80;;;;;;;10.90;86.32;94532.53;4838329;29;20059;-73
2023/10/27 03:33:17;;;;;;;2.92;0.80;;;;;;;10.90;86.24;94519.50;4825151;29;20556;-76
2023/10/27 03:35:47;;;;;;;2.97;1.10;;;;;;;10.82;82.86;94514.66;4825990;29;20077;-74
2023/10/27 03:38:15;;;;;;;3.45;1.20;;;;;;;10.75;81.55;94504.38;4824979;29;20086;-74
2023/10/27 03:40:43;;;;;;;3.30;1.00;;;;;;;10.74;82.90;94509.84;4824983;29;20054;-76
2023/10/27 03:43:11;;;;;;;1.05;0.77;;;;;;;10.75;84.84;94514.81;4841221;29;20144;-76
2023/10/27 03:45:38;;;;;;;3.50;1.13;;;;;;;10.78;84.90;94513.53;4833916;29;20110;-76
2023/10/27 03:48:06;;;;;;;2.92;0.80;;;;;;;10.78;84.25;94514.34;4843074;29;20077;-77
2023/10/27 03:50:36;;;;;;;2.55;0.93;;;;;;;10.79;84.61;94515.13;4843230;29;20053;-76
2023/10/27 03:53:05;;;;;;;2.75;0.70;;;;;;;10.79;84.14;94515.13;4843372;29;20110;-76
2023/10/27 03:55:32;;;;;;;2.90;0.60;;;;;;;10.79;84.02;94509.94;4831111;29;20060;-77
2023/10/27 03:58:13;;;;;;;2.17;0.77;;;;;;;10.79;84.82;94510.72;4832449;29;20055;-77
2023/10/27 04:00:40;;;;;;;5.50;1.60;;;;;;;10.81;84.56;94513.09;4843573;29;20519;-77
2023/10/27 04:03:08;;;;;;;3.25;1.05;;;;;;;10.81;83.39;94510.47;4837540;29;20081;-74
2023/10/27 04:05:35;;;;;;;1.48;1.13;;;;;;;10.82;84.44;94509.44;4837048;29;20054;-74
2023/10/27 04:08:05;;;;;;;3.42;0.80;;;;;;;10.83;84.67;94521.47;4848152;29;20061;-74
2023/10/27 04:10:33;;;;;;;3.50;0.98;;;;;;;10.85;85.88;94515.00;4843071;29;20491;-74
2023/10/27 04:13:00;;;;;;;3.83;0.98;;;;;;;10.86;84.25;94521.00;4829295;29;20503;-74
2023/10/27 04:15:28;;;;;;;4.18;1.23;;;;;;;10.84;83.02;94521.22;4831414;29;20058;-74
2023/10/27 04:17:56;;;;;;;2.45;1.00;;;;;;;10.86;84.37;94521.78;4825402;29;20058;-76
2023/10/27 04:20:23;;;;;;;3.78;0.90;;;;;;;10.87;83.85;94527.81;4824493;29;20055;-77
2023/10/27 04:22:51;;;;;;;5.60;1.17;;;;;;;10.84;83.38;94517.84;4824652;29;20489;-76
2023/10/27 04:25:20;;;;;;;7.22;1.50;;;;;;;10.81;82.30;94519.09;4833506;29;20050;-76
2023/10/27 04:27:48;;;;;;;2.13;1.23;;;;;;;10.72;80.65;94510.84;4834522;29;20427;-76
2023/10/27 04:30:15;;;;;;;3.28;1.00;;;;;;;10.69;81.76;94510.53;4825170;29;20097;-76
2023/10/27 04:32:45;;;;;;;3.75;1.15;;;;;;;10.68;81.02;94519.38;4842471;29;20062;-76
2023/10/27 04:35:13;;;;;;;2.83;1.42;;;;;;;10.64;80.36;94519.03;4840822;29;20097;-76
2023/10/27 04:37:41;;;;;;;3.88;1.00;;;;;;;10.63;80.81;94511.47;4842205;29;20077;-77
2023/10/27 04:40:10;;;;;;;3.17;1.30;;;;;;;10.65;82.34;94525.84;4842380;29;20049;-76
2023/10/27 04:42:39;;;;;;;2.13;0.90;;;;;;;10.70;83.75;94520.72;4842145;29;20057;-76
2023/10/27 04:45:07;;;;;;;3.10;1.20;;;;;;;10.71;82.06;94518.91;4834563;29;20137;-76
2023/10/27 04:47:35;;;;;;;2.92;1.30;;;;;;;10.72;83.53;94518.69;4824515;29;20137;-77
2023/10/27 04:50:04;;;;;;;2.42;1.05;;;;;;;10.74;83.66;94525.50;4825955;29;20093;-76
2023/10/27 04:52:33;;;;;;;3.95;1.10;;;;;;;10.71;82.21;94529.34;4842156;29;20521;-76
2023/10/27 04:55:00;;;;;;;3.53;1.23;;;;;;;10.67;80.98;94529.03;4839368;29;20058;-76
2023/10/27 04:57:29;;;;;;;2.50;0.90;;;;;;;10.59;79.89;94516.34;4824126;29;20050;-75
2023/10/27 04:59:58;;;;;;;2.88;0.80;;;;;;;10.53;79.37;94522.50;4835834;29;20062;-76
2023/10/27 05:02:26;;;;;;;1.95;0.98;;;;;;;10.50;79.61;94522.97;4838141;29;20141;-77
2023/10/27 05:04:54;;;;;;;2.92;1.13;;;;;;;10.47;79.77;94519.00;4834920;29;20055;-76
2023/10/27 05:07:21;;;;;;;2.22;1.02;;;;;;;10.45;80.44;94530.66;4842041;29;20049;-77
2023/10/27 05:09:51;;;;;;;1.90;1.65;;;;;;;10.44;79.97;94524.66;4829742;29;20507;-77
2023/10/27 05:12:18;;;;;;;1.92;1.17;;;;;;;10.45;82.10;94536.69;4823790;29;20137;-76
2023/10/27 05:14:46;;;;;;;3.92;1.65;;;;;;;10.51;84.06;94534.97;4823506;29;20527;-76
2023/10/27 05:17:15;;;;;;;4.95;1.95;;;;;;;10.51;82.09;94535.75;4823422;29;20069;-77
2023/10/27 05:19:42;;;;;;;6.60;2.90;;;;;;;10.46;80.72;94527.84;4823693;29;20141;-76
2023/10/27 05:22:12;;;;;;;3.60;1.38;;;;;;;10.41;79.80;94525.16;4823247;29;20058;-77
2023/10/27 05:24:40;;;;;;;4.00;1.10;;;;;;;10.36;79.76;94521.63;4823447;29;20062;-79
2023/10/27 05:27:08;;;;;;;1.70;1.10;;;;;;;10.33;80.19;94525.50;4823511;29;20107;-77
2023/10/27 05:29:35;;;;;;;7.47;1.88;;;;;;;10.34;79.90;94531.50;4823835;29;20134;-77
2023/10/27 05:32:03;;;;;;;3.05;1.42;;;;;;;10.31;80.11;94520.50;4836389;29;20140;-77
2023/10/27 05:34:32;;;;;;;6.32;1.98;;;;;;;10.34;80.52;94532.28;4841483;29;20050;-76
2023/10/27 05:37:00;;;;;;;5.05;1.88;;;;;;;10.35;80.52;94526.06;4841260;29;20487;-77
2023/10/27 05:39:27;;;;;;;4.72;2.05;;;;;;;10.35;80.43;94525.28;4840704;29;20057;-77
2023/10/27 05:41:55;;;;;;;3.85;2.38;;;;;;;10.33;80.02;94524.72;4839869;29;20062;-76
2023/10/27 05:44:23;;;;;;;3.97;2.00;;;;;;;10.29;80.77;94532.19;4839626;29;20152;-76
2023/10/27 05:46:50;;;;;;;6.53;2.97;;;;;;;10.28;80.87;94525.38;4839368;29;20514;-77
2023/10/27 05:49:18;;;;;;;4.85;2.22;;;;;;;10.30;82.47;94529.38;4839781;29;20137;-77
2023/10/27 05:51:47;;;;;;;4.97;2.50;;;;;;;10.34;83.06;94528.88;4839920;29;20053;-76
2023/10/27 05:54:14;;;;;;;3.78;2.28;;;;;;;10.35;82.82;94526.06;4839953;29;20054;-77
2023/10/27 05:56:42;;;;;;;4.85;1.55;;;;;;;10.35;81.84;94523.47;4840255;29;20060;-76
2023/10/27 05:59:09;;;;;;;2.75;1.75;;;;;;;10.34;81.08;94518.47;4841429;29;20141;-76
2023/10/27 06:01:37;;;;;;;3.65;1.65;;;;;;;10.32;80.95;94518.72;4841149;29;20096;-76
2023/10/27 06:04:05;;;;;;;3.67;1.50;;;;;;;10.31;81.01;94523.13;4841088;29;20061;-76
2023/10/27 06:06:33;;;;;;;3.25;1.90;;;;;;;10.35;82.92;94523.47;4840815;29;20085;-76
2023/10/27 06:09:02;;;;;;;2.78;2.10;;;;;;;10.41;84.93;94532.19;4841708;29;20403;-76
2023/10/27 06:11:30;;;;;;;2.20;1.80;;;;;;;10.46;85.31;94529.66;4841279;29;20149;-76
2023/10/27 06:13:58;;;;;;;1.90;1.20;;;;;;;10.47;83.50;94533.84;4850961;29;20077;-76
2023/10/27 06:16:26;;;;;;;1.70;1.60;;;;;;;10.52;85.25;94547.00;4844105;29;20054;-76
2023/10/27 06:18:54;;;;;;;2.55;1.50;;;;;;;10.58;84.91;94546.03;4840975;29;20427;-76
2023/10/27 06:21:21;;;;;;;1.63;1.40;;;;;;;10.61;85.48;94555.25;4841050;29;20081;-76
2023/10/27 06:23:49;;;;;;;3.33;1.55;;;;;;;10.64;85.27;94558.16;4842924;29;20454;-76
2023/10/27 06:26:18;;;;;;;3.70;1.83;;;;;;;10.68;85.77;94559.28;4842762;29;20054;-76
2023/10/27 06:28:46;;;;;;;2.25;1.17;;;;;;;10.70;85.49;94552.00;4842486;29;20082;-76
2023/10/27 06:31:14;;;;;;;2.33;1.58;;;;;;;10.74;86.16;94554.19;4841099;29;20060;-76
2023/10/27 06:33:41;;;;;;;3.05;2.03;;;;;;;10.79;87.01;94556.88;4840904;29;20161;-77
2023/10/27 06:36:09;;;;;;;2.42;1.45;;;;;;;10.82;86.73;94562.41;4843919;29;20057;-76
2023/10/27 06:38:36;;;;;;;1.98;1.42;;;;;;;10.87;87.60;94574.75;4844440;29;20054;-76
2023/10/27 06:41:04;;;;;;;3.63;1.73;;;;;;;10.92;88.28;94577.44;4844358;29;20080;-76
2023/10/27 06:43:33;;;;;;;1.85;1.60;;;;;;;10.95;88.38;94576.97;4844598;29;20086;-76
2023/10/27 06:46:01;;;;;;;2.22;1.73;;;;;;;10.95;88.16;94582.19;4844050;29;20046;-76
2023/10/27 06:48:28;;;;;;;2.38;1.50;;;;;;;10.98;88.64;94579.13;4844467;29;20054;-76
2023/10/27 06:50:56;;;;;;;3.00;1.90;;;;;;;11.01;88.98;94568.22;4844615;29;20054;-76
2023/10/27 06:53:24;;;;;;;2.20;1.63;;;;;;;11.03;88.05;94568.00;4844098;29;20100;-76
2023/10/27 06:55:51;;;;;;;1.60;1.50;;;;;;;11.00;86.38;94582.31;4844100;29;20149;-77
2023/10/27 06:58:19;;;;;;;4.97;1.60;;;;;;;10.99;87.61;94587.75;4844365;29;20148;-76
2023/10/27 07:00:48;;;;;;;3.92;1.90;;;;;;;11.01;88.80;94596.13;4844119;29;20503;-76
2023/10/27 07:03:15;;;;;;;2.15;1.60;;;;;;;11.05;89.14;94608.47;4844248;29;20057;-76
2023/10/27 07:05:57;;;;;;;2.25;1.42;;;;;;;11.05;88.16;94612.91;4843758;29;20058;-77
2023/10/27 07:08:25;;;;;;;5.32;1.83;;;;;;;11.09;88.95;94599.16;4843913;29;20194;-76
2023/10/27 07:10:57;;;;;;;2.85;1.50;;;;;;;11.11;89.20;94615.38;4847619;29;20073;-76
2023/10/27 07:13:25;;;;;;;;;;;;;;;11.12;90.20;94624.78;4862323;29;20062;-76
2023/10/27 07:15:54;;;;;;;3.30;1.98;;;;;;;11.12;89.52;94630.00;4859085;29;19936;-77
2023/10/27 07:18:22;;;;;;;3.03;1.70;;;;;;;11.13;89.31;94636.81;4844521;29;20050;-76
2023/10/27 07:20:56;;;;;;;2.40;1.73;;;;;;;11.09;88.74;94633.06;4844252;29;20169;-76
2023/10/27 07:23:24;;;;;;;1.85;1.67;;;;;;;11.06;89.25;94644.00;4843877;29;20114;-77
2023/10/27 07:25:52;;;;;;;4.40;2.33;;;;;;;11.08;89.92;94644.53;4843448;29;20049;-76
2023/10/27 07:28:20;;;;;;;3.22;1.73;;;;;;;11.08;88.27;94649.75;4843659;29;20086;-76
2023/10/27 07:30:48;;;;;;;2.17;1.60;;;;;;;11.08;88.36;94639.31;4843791;29;20395;-76
2023/10/27 07:33:17;;;;;;;3.60;1.30;;;;;;;11.09;88.94;94651.34;4843639;29;20574;-76
2023/10/27 07:35:46;;;;;;;2.90;1.35;;;;;;;11.10;88.70;94657.34;4843240;29;20507;-76
2023/10/27 07:38:14;;;;;;;2.45;1.23;;;;;;;11.11;88.36;94654.50;4843627;29;20070;-77
2023/10/27 07:40:43;;;;;;;1.92;0.70;;;;;;;11.11;87.20;94659.72;4843358;29;20078;-76
2023/10/27 07:43:10;;;;;;;1.23;0.50;;;;;;;11.14;86.96;94648.03;4843755;29;20058;-76
2023/10/27 07:45:38;;;;;;;1.17;0.70;;;;;;;11.16;86.79;94660.84;4842985;29;20058;-76
2023/10/27 07:48:06;;;;;;;0.60;0.50;;;;;;;11.18;86.80;94656.19;4844107;29;20502;-74
2023/10/27 07:50:34;;;;;;;1.23;0.52;;;;;;;11.18;85.63;94658.81;4843231;29;20046;-77
2023/10/27 07:53:03;;;;;;;1.48;0.68;;;;;;;11.17;85.13;94668.44;4843142;29;20060;-74
2023/10/27 07:55:30;;;;;;;2.83;0.70;;;;;;;11.20;85.58;94672.41;4842994;29;20529;-76
2023/10/27 07:57:58;;;;;;;1.20;0.90;;;;;;;11.24;86.16;94676.94;4843276;29;20065;-76
2023/10/27 08:00:26;;;;;;;1.77;0.60;;;;;;;11.23;85.96;94671.94;4843111;29;20054;-76
2023/10/27 08:02:53;;;;;;;0.70;0.60;;;;;;;11.23;85.28;94685.00;4843211;29;20471;-74
2023/10/27 08:05:21;;;;;;;0.77;0.47;;;;;;;11.22;84.50;94684.19;4842798;29;20054;-74
2023/10/27 08:07:50;;;;;;;0.65;0.65;;;;;;;11.22;85.21;94691.25;4843327;29;20053;-73
2023/10/27 08:10:19;;;;;;;2.30;0.70;;;;;;;11.25;85.67;94691.56;4843524;29;20049;-73
2023/10/27 08:12:47;;;;;;;0.73;0.63;;;;;;;11.29;85.90;94694.50;4843215;29;20462;-74
2023/10/27 08:15:14;;;;;;;0.95;0.55;;;;;;;11.32;85.91;94699.25;4842817;29;20141;-74
2023/10/27 08:17:42;;;;;;;1.02;0.60;;;;;;;11.35;84.81;94698.81;4842913;29;20054;-74
2023/10/27 08:20:11;;;;;;;1.35;0.50;;;;;;;11.36;84.61;94692.53;4847686;29;20058;-74
2023/10/27 08:22:39;;;;;;;2.63;0.70;;;;;;;11.40;84.95;94688.44;4847302;29;20061;-74
2023/10/27 08:25:08;;;;;;;1.73;0.80;;;;;;;11.46;85.65;94692.75;4842674;29;20050;-74
2023/10/27 08:27:39;;;;;;;1.05;0.90;;;;;;;11.51;85.44;94687.59;4842834;29;20058;-74
2023/10/27 08:30:07;;;;;;;0.68;0.68;;;;;;;11.55;85.16;94701.00;4842811;29;20045;-74
2023/10/27 08:32:35;;;;;;;2.33;0.80;;;;;;;11.63;84.63;94702.41;4842603;29;20473;-74
2023/10/27 08:35:03;;;;;;;0.85;0.60;;;;;;;11.72;83.53;94708.88;4842716;29;20111;-74
2023/10/27 08:37:31;;;;;;;2.25;0.57;;;;;;;11.86;83.95;94702.28;4842582;29;20058;-74
2023/10/27 08:39:58;;;;;;;0.90;0.50;;;;;;;12.04;84.55;94711.75;4842537;29;20049;-74
2023/10/27 08:42:28;;;;;;;1.77;0.50;;;;;;;12.14;82.36;94716.38;4842244;29;20507;-74
2023/10/27 08:44:57;;;;;;;1.55;0.35;;;;;;;12.21;82.67;94727.44;4842298;29;20096;-74
2023/10/27 08:47:25;;;;;;;0.57;0.30;;;;;;;12.25;81.34;94715.50;4842551;29;20140;-74
2023/10/27 08:49:53;;;;;;;1.20;0.25;;;;;;;12.26;80.20;94724.91;4842064;29;20053;-74
2023/10/27 08:52:21;;;;;;;0.70;0.50;;;;;;;12.29;80.77;94721.84;4842419;29;20140;-74
2023/10/27 08:54:49;;;;;;;0.40;0.15;;;;;;;12.32;80.58;94720.56;4842713;29;20054;-74
2023/10/27 08:57:16;;;;;;;0.70;0.28;;;;;;;12.33;81.12;94725.56;4841849;29;20529;-74
2023/10/27 08:59:45;;;;;;;0.70;0.40;;;;;;;12.35;80.21;94728.72;4842463;29;20054;-74
2023/10/27 09:02:14;;;;;;;0.40;0.30;;;;;;;12.38;81.02;94737.13;4842611;29;20054;-74
2023/10/27 09:04:43;;;;;;;0.40;0.40;;;;;;;12.39;79.40;94730.84;4842320;29;20091;-74
2023/10/27 09:07:11;;;;;;;0.70;0.20;;;;;;;12.40;78.56;94729.81;4842474;29;20061;-74
2023/10/27 09:09:40;;;;;;;0.35;0.10;;;;;;;12.40;77.85;94737.66;4842322;29;20111;-74
2023/10/27 09:12:08;;;;;;;0.32;0.25;;;;;;;12.39;77.56;94751.78;4842256;29;20064;-74
2023/10/27 09:14:37;;;;;;;0.70;0.20;;;;;;;12.41;78.85;94749.72;4842374;29;20050;-74
2023/10/27 09:17:08;;;;;;;0.17;0.13;;;;;;;12.41;77.27;94757.56;4842130;29;20145;-74
2023/10/27 09:19:36;;;;;;;0.10;0.10;;;;;;;12.40;77.99;94769.84;4842144;29;20085;-74
2023/10/27 09:22:15;;;;;;;0.30;0.10;;;;;;;12.39;79.16;94759.63;4842005;29;20081;-74
2023/10/27 09:24:43;;;;;;;0.30;0.10;;;;;;;12.38;78.30;94763.28;4842107;29;20054;-74
2023/10/27 09:27:13;;;;;;;0.50;0.20;;;;;;;12.35;78.45;94767.94;4842332;29;20521;-74
2023/10/27 09:29:41;;;;;;;1.55;0.10;;;;;;;12.34;77.75;94750.66;4841924;29;20054;-74
2023/10/27 09:32:24;;;;;;;1.08;0.30;;;;;;;12.35;76.42;94767.94;4841744;29;20070;-74
2023/10/27 09:35:07;;;;;;;;;;;;;;;12.43;78.02;94761.53;4842287;29;20456;-74
2023/10/27 09:37:37;;;;;;;7.53;3.58;;;;;;;12.54;77.81;94767.69;4841664;29;20015;-74
2023/10/27 09:40:08;;;;;;;2.05;1.20;;;;;;;12.65;76.59;94772.03;4841648;29;20058;-74
2023/10/27 09:42:38;;;;;;;9.63;1.70;;;;;;;12.74;77.32;94775.84;4841561;29;20054;-75
2023/10/27 09:45:11;;;;;;;0.30;0.20;;;;;;;12.78;75.38;94771.72;4841225;29;20084;-74
2023/10/27 09:47:46;;;;;;;9.65;4.75;;;;;;;12.77;77.35;94785.06;4841355;29;20050;-74
2023/10/27 09:50:16;;;;;;;13.27;4.88;;;;;;;12.77;76.99;94777.22;4841636;29;20110;-74
2023/10/27 09:52:45;;;;;;;1.90;0.63;;;;;;;12.75;77.66;94787.91;4841283;29;20077;-74
2023/10/27 09:55:13;;;;;;;1.95;0.90;;;;;;;12.76;77.71;94788.69;4841170;29;20056;-74
2023/10/27 09:57:44;;;;;;;0.32;0.20;;;;;;;12.77;78.54;94790.28;4841763;29;20053;-74
2023/10/27 10:00:14;;;;;;;0.63;0.20;;;;;;;12.77;78.46;94798.13;4841130;29;20519;-74
2023/10/27 10:02:44;;;;;;;1.35;0.17;;;;;;;12.76;78.28;94784.25;4841499;29;20141;-73
2023/10/27 10:05:12;;;;;;;1.42;0.25;;;;;;;12.74;78.33;94798.59;4841338;29;20405;-75
2023/10/27 10:07:43;;;;;;;0.98;0.20;;;;;;;12.69;77.02;94791.47;4845390;29;20568;-74
2023/10/27 10:10:21;;;;;;;0.50;0.30;;;;;;;12.67;77.75;94798.75;4842537;29;20124;-74
2023/10/27 10:12:59;;;;;;;1.98;0.20;;;;;;;12.67;77.94;94796.16;4845133;29;20058;-73
2023/10/27 10:15:28;;;;;;;1.05;0.25;;;;;;;12.65;78.06;94798.22;4844952;29;20054;-74
2023/10/27 10:17:57;;;;;;;0.40;0.17;;;;;;;12.62;77.10;94798.69;4849727;29;20058;-74
2023/10/27 10:20:59;;;;;;;0.22;0.13;;;;;;;12.59;78.01;94804.38;4854281;29;20049;-74
2023/10/27 10:24:17;;;;;;;0.70;0.47;;;;;;;12.53;78.26;94794.91;4850695;29;20062;-74
2023/10/27 10:27:05;;;;;;;0.60;0.60;;;;;;;12.48;80.27;94797.41;4856046;29;20061;-75
2023/10/27 10:29:33;;;;;;;0.52;0.47;;;;;;;12.47;80.25;94801.06;4853299;29;20054;-75
2023/10/27 10:32:31;;;;;;;0.30;0.20;;;;;;;12.47;79.50;94801.06;4847666;29;20054;-74
2023/10/27 10:35:22;;;;;;;1.70;0.47;;;;;;;12.46;80.00;94815.16;4832903;29;20069;-74
2023/10/27 10:37:52;;;;;;;0.30;0.30;;;;;;;12.39;78.73;94828.38;4844707;29;20140;-74
2023/10/27 10:40:26;;;;;;;0.68;0.20;;;;;;;12.33;78.54;94822.28;4844981;29;20485;-74
2023/10/27 10:43:17;;;;;;;0.47;0.47;;;;;;;12.30;80.32;94822.75;4844677;29;20050;-74
2023/10/27 10:45:45;;;;;;;2.13;0.63;;;;;;;12.26;79.05;94819.03;4844182;29;20058;-76
2023/10/27 10:48:13;;;;;;;1.73;0.63;;;;;;;12.23;80.28;94809.03;4844285;29;20152;-74
2023/10/27 10:50:43;;;;;;;0.77;0.32;;;;;;;12.24;81.03;94812.44;4844508;29;20050;-76
2023/10/27 10:53:12;;;;;;;1.98;0.47;;;;;;;12.20;79.34;94806.09;4844488;29;20049;-74
2023/10/27 10:55:40;;;;;;;2.25;0.57;;;;;;;12.15;79.59;94814.66;4844216;29;20137;-74
2023/10/27 10:58:08;;;;;;;1.08;0.75;;;;;;;12.16;79.85;94832.72;4844625;29;20058;-74
2023/10/27 11:00:36;;;;;;;1.17;0.40;;;;;;;12.10;78.67;94814.56;4844260;29;20085;-74
2023/10/27 11:03:07;;;;;;;1.88;0.50;;;;;;;12.02;79.94;94825.41;4844399;29;20057;-75
2023/10/27 11:05:35;;;;;;;2.47;0.75;;;;;;;12.02;80.08;94825.41;4843933;29;20056;-75
2023/10/27 11:08:05;;;;;;;1.65;0.75;;;;;;;12.03;80.40;94824.38;4844074;29;20053;-74
2023/10/27 11:10:33;;;;;;;1.90;0.57;;;;;;;12.05;81.12;94827.56;4844162;29;20077;-75
2023/10/27 11:13:05;;;;;;;1.00;0.90;;;;;;;12.06;82.17;94823.91;4843959;29;20060;-75
2023/10/27 11:15:48;;;;;;;1.48;0.70;;;;;;;12.08;80.88;94827.88;4844021;29;20064;-74
2023/10/27 11:18:17;;;;;;;2.45;0.80;;;;;;;12.11;81.09;94829.22;4844259;29;20076;-75
2023/10/27 11:20:45;;;;;;;4.88;1.27;;;;;;;12.14;81.64;94829.53;4843370;29;20065;-74
2023/10/27 11:23:15;;;;;;;1.05;0.82;;;;;;;12.17;82.32;94836.13;4843738;29;20053;-74
2023/10/27 11:25:44;;;;;;;1.52;0.90;;;;;;;12.19;80.64;94841.13;4843452;29;20061;-76
2023/10/27 11:28:21;;;;;;;5.28;1.10;;;;;;;12.15;81.00;94832.94;4843618;29;20057;-74
2023/10/27 11:30:59;;;;;;;2.45;0.98;;;;;;;12.17;81.60;94841.34;4843792;29;20069;-74
2023/10/27 11:33:27;;;;;;;2.53;0.95;;;;;;;12.20;81.11;94833.06;4843594;29;20056;-75
2023/10/27 11:35:55;;;;;;;2.70;1.23;;;;;;;12.23;81.65;94832.56;4844168;29;20400;-76
2023/10/27 11:38:31;;;;;;;2.53;1.20;;;;;;;12.34;83.24;94834.31;4843514;29;20152;-75
2023/10/27 11:41:12;;;;;;;2.83;0.80;;;;;;;12.54;81.51;94838.31;4843580;29;20097;-75
2023/10/27 11:43:41;;;;;;;1.85;1.08;;;;;;;12.72;80.21;94834.66;4843603;29;20092;-74
2023/10/27 11:46:12;;;;;;;1.52;1.08;;;;;;;12.85;78.86;94838.78;4843438;29;20555;-74
2023/10/27 11:48:40;;;;;;;4.75;1.10;;;;;;;13.02;78.96;94823.09;4843415;29;20057;-74
2023/10/27 11:51:09;;;;;;;1.70;1.00;;;;;;;13.26;78.31;94832.31;4843623;29;20054;-74
2023/10/27 11:53:42;;;;;;;2.60;0.77;;;;;;;13.50;79.52;94835.53;4843394;29;20570;-75
2023/10/27 11:56:09;;;;;;;5.10;1.38;;;;;;;13.70;78.36;94829.75;4843120;29;20081;-74
2023/10/27 11:58:38;;;;;;;2.45;1.00;;;;;;;13.84;77.30;94848.53;4843274;29;20127;-75
2023/10/27 12:01:07;;;;;;;3.50;1.33;;;;;;;13.95;76.92;94844.97;4843192;29;20425;-75
2023/10/27 12:03:34;;;;;;;3.20;1.30;;;;;;;14.05;75.75;94851.34;4843274;29;20050;-75
2023/10/27 12:06:02;;;;;;;3.17;1.10;;;;;;;14.15;74.74;94840.97;4842797;29;20582;-74
2023/10/27 12:08:30;;;;;;;1.38;1.15;;;;;;;14.20;75.39;94838.41;4842960;29;20096;-75
2023/10/27 12:10:59;;;;;;;1.52;1.10;;;;;;;14.27;74.17;94852.09;4843051;29;20054;-74
2023/10/27 12:13:27;;;;;;;2.85;1.50;;;;;;;14.31;72.23;94855.03;4842996;29;20057;-75
2023/10/27 12:15:54;;;;;;;1.88;0.95;;;;;;;14.31;74.63;94845.31;4842997;29;20106;-74
2023/10/27 12:18:22;;;;;;;2.75;0.90;;;;;;;14.34;72.67;94849.28;4843103;29;20054;-75
2023/10/27 12:20:50;;;;;;;2.78;1.00;;;;;;;14.32;72.41;94836.44;4842732;29;20514;-75
2023/10/27 12:23:19;;;;;;;2.00;0.85;;;;;;;14.31;72.78;94845.31;4842662;29;20054;-75
2023/10/27 12:25:46;;;;;;;1.35;0.60;;;;;;;14.28;71.42;94847.63;4842601;29;20482;-75
2023/10/27 12:28:16;;;;;;;1.98;0.77;;;;;;;14.22;69.92;94857.31;4842900;29;20054;-74
2023/10/27 12:30:44;;;;;;;3.03;0.90;;;;;;;14.19;70.30;94847.28;4842732;29;20096;-75
2023/10/27 12:33:12;;;;;;;2.15;0.85;;;;;;;14.17;70.58;94850.19;4843621;29;20149;-75
2023/10/27 12:35:39;;;;;;;4.97;0.60;;;;;;;14.17;70.67;94833.66;4850991;29;20064;-75
2023/10/27 12:38:07;;;;;;;5.32;0.70;;;;;;;14.14;70.80;94840.16;4842490;29;20102;-75
2023/10/27 12:40:35;;;;;;;1.15;0.70;;;;;;;14.11;72.05;94842.50;4842340;29;20137;-75
2023/10/27 12:43:04;;;;;;;1.05;0.60;;;;;;;14.07;69.42;94844.03;4842153;29;20584;-75
2023/10/27 12:45:35;;;;;;;1.98;0.55;;;;;;;14.02;69.77;94840.31;4842231;29;20093;-75
2023/10/27 12:48:02;;;;;;;2.30;1.10;;;;;;;14.00;72.20;94833.75;4842508;29;20082;-74
2023/10/27 12:50:30;;;;;;;1.85;0.50;;;;;;;13.97;70.46;94829.78;4842248;29;20050;-75
2023/10/27 12:52:58;;;;;;;2.03;1.13;;;;;;;13.95;71.04;94826.63;4842061;29;20046;-75
2023/10/27 12:55:27;;;;;;;1.08;0.70;;;;;;;13.95;72.71;94826.63;4841896;29;20157;-74
2023/10/27 12:57:57;;;;;;;2.85;0.88;;;;;;;13.96;72.23;94838.69;4842375;29;20771;-75
2023/10/27 13:00:27;;;;;;;1.90;0.77;;;;;;;13.95;72.83;94837.09;4842141;29;20412;-74
2023/10/27 13:02:58;;;;;;;2.08;0.85;;;;;;;13.94;73.70;94838.13;4842034;29;20054;-75
2023/10/27 13:05:27;;;;;;;1.95;0.73;;;;;;;13.92;74.33;94837.59;4841766;29;20425;-75
2023/10/27 13:07:56;;;;;;;2.10;0.88;;;;;;;13.90;72.80;94849.34;4842056;29;20050;-76
2023/10/27 13:10:24;;;;;;;2.53;0.93;;;;;;;13.89;73.46;94837.31;4841769;29;20573;-74
2023/10/27 13:12:55;;;;;;;1.95;0.80;;;;;;;13.89;74.77;94842.53;4841910;29;20102;-75
2023/10/27 13:15:22;;;;;;;3.42;1.40;;;;;;;13.87;74.10;94849.84;4842016;29;20136;-74
2023/10/27 13:17:50;;;;;;;4.45;1.33;;;;;;;13.82;73.11;94842.72;4841794;29;20088;-74
2023/10/27 13:20:19;;;;;;;3.80;0.80;;;;;;;13.81;73.78;94851.63;4841786;29;20073;-75
2023/10/27 13:22:47;;;;;;;2.17;1.15;;;;;;;13.80;74.38;94850.03;4841810;29;20080;-75
2023/10/27 13:25:15;;;;;;;4.18;1.30;;;;;;;13.78;74.10;94846.88;4841634;29;20062;-75
2023/10/27 13:27:44;;;;;;;3.35;1.38;;;;;;;13.79;75.50;94845.81;4841574;29;20058;-75
2023/10/27 13:30:13;;;;;;;1.90;0.88;;;;;;;13.78;75.51;94847.66;4841695;29;20054;-75
2023/10/27 13:32:42;;;;;;;2.25;1.25;;;;;;;13.76;74.80;94851.56;4841339;29;20046;-75
2023/10/27 13:35:10;;;;;;;2.50;1.23;;;;;;;13.75;74.91;94857.81;4841681;29;20058;-74
2023/10/27 13:37:39;;;;;;;4.10;1.25;;;;;;;13.71;73.36;94861.97;4845449;29;20084;-74
2023/10/27 13:40:08;;;;;;;2.25;1.05;;;;;;;13.70;75.23;94865.63;4859093;29;20064;-74
2023/10/27 13:42:36;;;;;;;2.13;1.23;;;;;;;13.71;75.57;94861.97;4856252;29;20081;-74
2023/10/27 13:45:05;;;;;;;4.75;1.10;;;;;;;13.71;76.02;94856.72;4841653;29;20062;-75
2023/10/27 13:47:32;;;;;;;3.20;1.65;;;;;;;13.69;75.87;94859.63;4842016;29;20100;-75
2023/10/27 13:50:00;;;;;;;2.65;1.45;;;;;;;13.68;75.69;94857.22;4841791;29;20149;-75
2023/10/27 13:52:28;;;;;;;2.15;1.02;;;;;;;13.69;76.13;94861.44;4841652;29;20076;-74
2023/10/27 13:54:58;;;;;;;2.15;1.17;;;;;;;13.65;75.79;94863.75;4841556;29;20061;-75
2023/10/27 13:57:26;;;;;;;2.83;1.17;;;;;;;13.66;76.52;94869.78;4841379;29;20118;-75
2023/10/27 13:59:54;;;;;;;4.50;1.85;;;;;;;13.64;75.39;94870.00;4841238;29;20137;-75
2023/10/27 14:02:21;;;;;;;2.90;1.25;;;;;;;13.62;75.16;94876.53;4841495;29;20064;-75
2023/10/27 14:04:49;;;;;;;3.40;1.05;;;;;;;13.61;74.75;94881.00;4841434;29;20065;-75
2023/10/27 14:07:17;;;;;;;2.95;1.05;;;;;;;13.59;75.55;94889.09;4841250;29;20053;-76
2023/10/27 14:09:45;;;;;;;2.00;1.20;;;;;;;13.57;76.05;94893.78;4841038;29;20069;-74
2023/10/27 14:12:14;;;;;;;1.85;1.27;;;;;;;13.57;76.80;94898.22;4844592;29;20129;-75
2023/10/27 14:14:42;;;;;;;2.70;0.90;;;;;;;13.55;76.04;94889.81;4849812;29;20058;-75
2023/10/27 14:17:10;;;;;;;1.40;0.80;;;;;;;13.55;75.84;94895.84;4850039;29;20054;-75
2023/10/27 14:19:38;;;;;;;2.92;1.13;;;;;;;13.55;76.54;94906.31;4842983;29;20050;-74
2023/10/27 14:22:06;;;;;;;2.13;0.80;;;;;;;13.54;75.43;94899.50;4841753;29;20066;-75
2023/10/27 14:24:34;;;;;;;1.35;0.70;;;;;;;13.52;73.81;94901.56;4840974;29;20499;-74
2023/10/27 14:27:01;;;;;;;1.73;0.82;;;;;;;13.52;73.81;94909.44;4841672;29;20054;-75
2023/10/27 14:29:30;;;;;;;1.33;0.75;;;;;;;13.51;75.44;94905.22;4841214;29;20131;-75
2023/10/27 14:31:58;;;;;;;1.65;0.70;;;;;;;13.51;75.99;94913.09;4841449;29;20053;-75